createdAt,value
2018-07-08T00:00:49.032Z,0.00
2018-07-08T00:01:49.034Z,0.00
2018-07-08T00:02:49.041Z,0.00
2018-07-08T00:03:49.046Z,0.00
2018-07-08T00:04:49.053Z,0.00
2018-07-08T00:05:49.062Z,0.00
2018-07-08T00:06:49.059Z,0.00
2018-07-08T00:07:49.062Z,0.00
2018-07-08T00:08:49.071Z,0.00
2018-07-08T00:09:49.090Z,0.00
2018-07-08T00:10:49.074Z,0.00
2018-07-08T00:11:49.073Z,0.00
2018-07-08T00:12:49.076Z,0.00
2018-07-08T00:13:49.086Z,0.00
2018-07-08T00:14:49.089Z,0.00
2018-07-08T00:15:49.093Z,0.00
2018-07-08T00:16:49.099Z,0.00
2018-07-08T00:19:19.204Z,0.00
2018-07-08T00:20:10.131Z,0.00
2018-07-08T00:21:10.140Z,0.00
2018-07-08T00:22:10.145Z,0.00
2018-07-08T00:23:10.156Z,0.00
2018-07-08T00:24:10.151Z,0.00
2018-07-08T00:25:10.162Z,0.00
2018-07-08T00:26:10.169Z,0.00
2018-07-08T00:27:10.162Z,0.00
2018-07-08T00:28:10.165Z,0.00
2018-07-08T00:29:10.205Z,0.00
2018-07-08T00:30:10.171Z,0.00
2018-07-08T00:31:10.182Z,0.00
2018-07-08T00:32:10.196Z,0.00
2018-07-08T00:33:10.194Z,0.00
2018-07-08T00:34:10.188Z,0.00
2018-07-08T00:35:10.198Z,0.00
2018-07-08T00:36:10.201Z,0.00
2018-07-08T00:37:10.205Z,0.00
2018-07-08T00:38:10.213Z,0.00
2018-07-08T00:39:10.216Z,0.00
2018-07-08T00:40:10.219Z,0.00
2018-07-08T00:41:10.230Z,0.00
2018-07-08T00:42:10.225Z,0.00
2018-07-08T00:43:10.232Z,0.00
2018-07-08T00:44:10.233Z,0.00
2018-07-08T00:45:10.243Z,0.00
2018-07-08T00:46:10.242Z,0.00
2018-07-08T00:47:10.239Z,0.00
2018-07-08T00:48:10.251Z,0.00
2018-07-08T00:49:10.254Z,0.00
2018-07-08T00:50:10.258Z,0.00
2018-07-08T00:51:10.256Z,0.00
2018-07-08T00:52:10.272Z,0.00
2018-07-08T00:53:10.274Z,0.00
2018-07-08T00:54:10.274Z,0.00
2018-07-08T00:55:10.272Z,0.00
2018-07-08T00:56:10.276Z,0.00
2018-07-08T00:57:10.281Z,0.00
2018-07-08T00:58:10.285Z,0.00
2018-07-08T00:59:10.290Z,0.00
2018-07-08T01:00:10.297Z,0.00
2018-07-08T01:01:10.302Z,0.00
2018-07-08T01:02:10.303Z,0.00
2018-07-08T01:03:10.308Z,0.00
2018-07-08T01:04:10.309Z,0.00
2018-07-08T01:05:10.321Z,0.00
2018-07-08T01:06:10.316Z,0.00
2018-07-08T01:07:10.325Z,0.00
2018-07-08T01:08:10.327Z,0.00
2018-07-08T01:09:10.328Z,0.00
2018-07-08T01:10:10.337Z,0.00
2018-07-08T01:11:10.341Z,0.00
2018-07-08T01:12:10.344Z,0.00
2018-07-08T01:13:10.352Z,0.00
2018-07-08T01:14:10.354Z,0.00
2018-07-08T01:15:10.357Z,0.00
2018-07-08T01:16:10.358Z,0.00
2018-07-08T01:17:10.355Z,0.00
2018-07-08T01:18:10.368Z,0.00
2018-07-08T01:19:10.373Z,0.00
2018-07-08T01:20:10.372Z,0.00
2018-07-08T01:21:10.376Z,0.00
2018-07-08T01:22:10.381Z,0.00
2018-07-08T01:23:10.388Z,0.00
2018-07-08T01:24:10.388Z,0.00
2018-07-08T01:25:10.395Z,0.00
2018-07-08T01:26:10.392Z,0.00
2018-07-08T01:27:10.396Z,0.00
2018-07-08T01:28:10.401Z,0.00
2018-07-08T01:29:10.404Z,0.00
2018-07-08T01:30:10.418Z,0.00
2018-07-08T01:31:10.425Z,0.00
2018-07-08T01:32:10.416Z,0.00
2018-07-08T01:33:10.431Z,0.00
2018-07-08T01:34:10.429Z,0.00
2018-07-08T01:35:10.434Z,0.00
2018-07-08T01:36:10.431Z,0.00
2018-07-08T01:37:10.434Z,0.00
2018-07-08T01:38:10.445Z,0.00
2018-07-08T01:39:10.445Z,0.00
2018-07-08T01:40:10.447Z,0.00
2018-07-08T01:41:10.450Z,0.00
2018-07-08T01:42:10.457Z,0.00
2018-07-08T01:43:10.471Z,0.00
2018-07-08T01:44:10.457Z,0.00
2018-07-08T01:45:10.463Z,0.00
2018-07-08T01:46:10.469Z,0.00
2018-07-08T01:47:10.472Z,0.00
2018-07-08T01:48:10.478Z,0.00
2018-07-08T01:49:10.480Z,0.00
2018-07-08T01:50:10.483Z,0.00
2018-07-08T01:51:10.484Z,0.00
2018-07-08T01:52:10.489Z,0.00
2018-07-08T01:53:10.490Z,0.00
2018-07-08T01:54:10.500Z,0.00
2018-07-08T01:55:10.503Z,0.00
2018-07-08T01:56:10.505Z,0.00
2018-07-08T01:57:10.502Z,0.00
2018-07-08T01:58:10.506Z,0.00
2018-07-08T01:59:10.513Z,0.00
2018-07-08T02:00:19.145Z,0.00
2018-07-08T02:02:03.934Z,0.00
2018-07-08T02:03:03.921Z,0.00
2018-07-08T02:04:03.925Z,0.00
2018-07-08T02:05:03.932Z,0.00
2018-07-08T02:06:03.929Z,0.00
2018-07-08T02:07:04.017Z,0.00
2018-07-08T02:08:03.941Z,0.00
2018-07-08T02:09:03.947Z,0.00
2018-07-08T02:10:03.947Z,0.00
2018-07-08T02:11:03.947Z,0.00
2018-07-08T02:12:03.953Z,0.00
2018-07-08T02:13:03.957Z,0.00
2018-07-08T02:14:03.957Z,0.00
2018-07-08T02:15:03.962Z,0.00
2018-07-08T02:16:03.964Z,0.00
2018-07-08T02:17:03.972Z,0.00
2018-07-08T02:18:03.973Z,0.00
2018-07-08T02:19:03.973Z,0.00
2018-07-08T02:20:03.985Z,0.00
2018-07-08T02:21:04.002Z,0.00
2018-07-08T02:22:03.983Z,0.00
2018-07-08T02:23:03.991Z,0.00
2018-07-08T02:24:12.621Z,0.00
2018-07-08T02:25:57.403Z,0.00
2018-07-08T02:26:57.393Z,0.00
2018-07-08T02:27:57.396Z,0.00
2018-07-08T02:28:57.398Z,0.00
2018-07-08T02:29:57.402Z,0.00
2018-07-08T02:30:57.406Z,0.00
2018-07-08T02:31:57.407Z,0.00
2018-07-08T02:32:57.415Z,0.00
2018-07-08T02:33:57.412Z,0.00
2018-07-08T02:34:57.416Z,0.00
2018-07-08T02:35:57.426Z,0.00
2018-07-08T02:36:57.421Z,0.00
2018-07-08T02:37:57.430Z,0.00
2018-07-08T02:38:57.429Z,0.00
2018-07-08T02:39:57.434Z,0.00
2018-07-08T02:40:57.435Z,0.00
2018-07-08T02:41:57.443Z,0.00
2018-07-08T02:42:57.450Z,0.00
2018-07-08T02:43:57.442Z,0.00
2018-07-08T02:44:57.448Z,0.00
2018-07-08T02:45:57.451Z,0.00
2018-07-08T02:46:57.455Z,0.00
2018-07-08T02:47:57.453Z,0.00
2018-07-08T02:48:57.473Z,0.00
2018-07-08T02:49:57.480Z,0.00
2018-07-08T02:50:57.483Z,0.00
2018-07-08T02:51:57.467Z,0.00
2018-07-08T02:52:57.476Z,0.00
2018-07-08T02:53:57.476Z,0.00
2018-07-08T02:54:57.483Z,0.00
2018-07-08T02:55:57.488Z,0.00
2018-07-08T02:56:57.492Z,0.00
2018-07-08T02:57:57.488Z,0.00
2018-07-08T02:58:57.489Z,0.00
2018-07-08T03:18:22.520Z,0.00
2018-07-08T03:19:22.500Z,0.00
2018-07-08T03:20:22.500Z,0.00
2018-07-08T03:21:22.498Z,0.00
2018-07-08T03:22:22.493Z,0.00
2018-07-08T03:23:22.504Z,0.00
2018-07-08T03:24:22.492Z,0.00
2018-07-08T03:25:22.497Z,0.00
2018-07-08T03:26:22.496Z,0.00
2018-07-08T03:27:22.498Z,0.00
2018-07-08T03:28:22.500Z,0.00
2018-07-08T03:29:22.503Z,0.00
2018-07-08T03:30:22.502Z,0.00
2018-07-08T03:31:22.506Z,0.00
2018-07-08T03:32:22.504Z,0.00
2018-07-08T03:33:22.522Z,0.00
2018-07-08T03:34:22.508Z,0.00
2018-07-08T03:35:22.516Z,0.00
2018-07-08T03:36:22.522Z,0.00
2018-07-08T03:37:22.513Z,0.00
2018-07-08T03:38:22.514Z,0.00
2018-07-08T03:39:22.514Z,0.00
2018-07-08T03:40:22.526Z,0.00
2018-07-08T03:41:22.522Z,0.00
2018-07-08T03:42:22.539Z,0.00
2018-07-08T03:43:22.528Z,0.00
2018-07-08T03:44:22.529Z,0.00
2018-07-08T03:45:22.529Z,0.00
2018-07-08T03:46:22.532Z,0.00
2018-07-08T03:47:22.540Z,0.00
2018-07-08T03:48:22.536Z,0.00
2018-07-08T03:49:22.538Z,0.00
2018-07-08T03:50:22.547Z,0.00
2018-07-08T03:51:22.548Z,0.00
2018-07-08T03:52:22.544Z,0.00
2018-07-08T03:53:22.560Z,0.00
2018-07-08T03:54:22.557Z,0.00
2018-07-08T03:55:22.588Z,0.00
2018-07-08T03:56:22.556Z,0.00
2018-07-08T03:57:22.563Z,0.00
2018-07-08T03:58:22.570Z,0.00
2018-07-08T03:59:22.561Z,0.00
2018-07-08T04:00:22.569Z,0.00
2018-07-08T04:01:22.571Z,0.00
2018-07-08T04:02:22.570Z,0.00
2018-07-08T04:03:22.570Z,0.00
2018-07-08T04:04:22.582Z,0.00
2018-07-08T04:05:22.579Z,0.00
2018-07-08T04:06:22.582Z,0.00
2018-07-08T04:07:22.585Z,0.00
2018-07-08T04:08:22.591Z,0.00
2018-07-08T04:09:22.583Z,0.00
2018-07-08T04:10:22.596Z,0.00
2018-07-08T04:11:22.593Z,0.00
2018-07-08T04:12:22.598Z,0.00
2018-07-08T04:13:22.707Z,0.00
2018-07-08T04:14:22.601Z,5.63
2018-07-08T04:15:22.624Z,5.63
2018-07-08T04:16:22.608Z,5.63
2018-07-08T04:17:22.611Z,5.63
2018-07-08T04:18:22.613Z,5.63
2018-07-08T04:19:22.620Z,5.63
2018-07-08T04:20:22.617Z,5.63
2018-07-08T04:21:22.618Z,5.63
2018-07-08T04:22:22.624Z,5.63
2018-07-08T04:23:22.623Z,5.63
2018-07-08T04:24:22.628Z,5.63
2018-07-08T04:25:22.634Z,5.63
2018-07-08T04:26:22.636Z,5.63
2018-07-08T04:27:22.632Z,5.63
2018-07-08T04:28:31.269Z,5.63
2018-07-08T04:30:16.068Z,11.25
2018-07-08T04:31:16.053Z,11.25
2018-07-08T04:32:16.039Z,11.25
2018-07-08T04:33:16.046Z,16.88
2018-07-08T04:34:16.050Z,22.50
2018-07-08T04:35:16.048Z,16.88
2018-07-08T04:36:16.050Z,16.88
2018-07-08T04:37:16.054Z,16.88
2018-07-08T04:38:16.060Z,16.88
2018-07-08T04:39:16.064Z,28.13
2018-07-08T04:40:16.068Z,39.38
2018-07-08T04:41:16.151Z,56.25
2018-07-08T04:42:16.076Z,56.25
2018-07-08T04:43:16.079Z,39.38
2018-07-08T04:44:16.082Z,50.63
2018-07-08T04:45:16.084Z,67.50
2018-07-08T04:46:16.090Z,73.13
2018-07-08T04:47:16.102Z,73.13
2018-07-08T04:48:16.097Z,67.50
2018-07-08T04:49:16.177Z,67.50
2018-07-08T04:50:16.118Z,61.88
2018-07-08T04:51:16.125Z,56.25
2018-07-08T04:52:16.135Z,61.88
2018-07-08T04:53:16.141Z,73.13
2018-07-08T04:54:16.183Z,78.75
2018-07-08T04:55:16.156Z,90.00
2018-07-08T04:56:16.172Z,101.25
2018-07-08T04:57:16.175Z,118.13
2018-07-08T04:58:16.189Z,129.38
2018-07-08T04:59:16.197Z,135.00
2018-07-08T05:00:16.209Z,135.00
2018-07-08T05:01:16.219Z,140.63
2018-07-08T05:02:16.229Z,146.25
2018-07-08T05:03:16.248Z,146.25
2018-07-08T05:04:16.266Z,146.25
2018-07-08T05:05:16.280Z,151.88
2018-07-08T05:06:16.286Z,146.25
2018-07-08T05:07:16.308Z,146.25
2018-07-08T05:08:16.314Z,151.88
2018-07-08T05:09:16.326Z,151.88
2018-07-08T05:10:16.344Z,157.50
2018-07-08T05:11:16.353Z,163.13
2018-07-08T05:12:16.381Z,163.13
2018-07-08T05:13:16.398Z,174.38
2018-07-08T05:14:16.407Z,174.38
2018-07-08T05:15:16.454Z,174.38
2018-07-08T05:16:16.466Z,174.38
2018-07-08T05:17:16.455Z,180.00
2018-07-08T05:18:16.473Z,180.00
2018-07-08T05:19:16.504Z,185.63
2018-07-08T05:20:16.511Z,185.63
2018-07-08T05:21:16.522Z,191.25
2018-07-08T05:22:16.537Z,191.25
2018-07-08T05:23:16.565Z,191.25
2018-07-08T05:24:16.744Z,196.88
2018-07-08T05:25:16.595Z,196.88
2018-07-08T05:26:16.628Z,202.50
2018-07-08T05:27:16.627Z,213.75
2018-07-08T05:28:16.651Z,213.75
2018-07-08T05:29:16.668Z,219.38
2018-07-08T05:30:16.691Z,225.00
2018-07-08T05:31:16.719Z,230.63
2018-07-08T05:32:16.732Z,236.25
2018-07-08T05:33:16.776Z,236.25
2018-07-08T05:34:16.767Z,236.25
2018-07-08T05:35:16.790Z,236.25
2018-07-08T05:36:16.807Z,241.88
2018-07-08T05:37:16.822Z,230.63
2018-07-08T05:38:16.861Z,230.63
2018-07-08T05:39:16.900Z,230.63
2018-07-08T05:40:16.899Z,236.25
2018-07-08T05:41:16.908Z,236.25
2018-07-08T05:42:16.947Z,241.88
2018-07-08T05:43:16.954Z,241.88
2018-07-08T05:44:16.981Z,247.50
2018-07-08T05:45:17.000Z,247.50
2018-07-08T05:46:17.012Z,241.88
2018-07-08T05:47:17.031Z,247.50
2018-07-08T05:48:17.052Z,253.13
2018-07-08T05:49:17.197Z,258.75
2018-07-08T05:50:17.117Z,258.75
2018-07-08T05:51:17.125Z,253.13
2018-07-08T05:52:17.152Z,264.38
2018-07-08T05:53:17.186Z,270.00
2018-07-08T05:54:17.200Z,270.00
2018-07-08T05:55:17.344Z,275.63
2018-07-08T05:56:17.234Z,281.25
2018-07-08T05:57:17.282Z,264.38
2018-07-08T05:58:17.282Z,281.25
2018-07-08T05:59:17.294Z,292.50
2018-07-08T06:00:17.316Z,241.88
2018-07-08T06:01:17.338Z,281.25
2018-07-08T06:02:17.384Z,247.50
2018-07-08T06:03:17.377Z,292.50
2018-07-08T06:04:17.397Z,241.88
2018-07-08T06:05:17.422Z,157.50
2018-07-08T06:06:17.441Z,202.50
2018-07-08T06:07:17.468Z,219.38
2018-07-08T06:08:17.488Z,84.38
2018-07-08T06:09:17.508Z,73.13
2018-07-08T06:10:17.532Z,157.50
2018-07-08T06:11:17.554Z,61.88
2018-07-08T06:12:17.583Z,39.38
2018-07-08T06:13:17.591Z,33.75
2018-07-08T06:14:17.606Z,45.00
2018-07-08T06:15:17.644Z,45.00
2018-07-08T06:16:17.685Z,39.38
2018-07-08T06:17:17.660Z,33.75
2018-07-08T06:18:17.680Z,28.13
2018-07-08T06:19:17.694Z,28.13
2018-07-08T06:20:17.717Z,28.13
2018-07-08T06:21:17.732Z,22.50
2018-07-08T06:22:17.745Z,22.50
2018-07-08T06:23:17.761Z,22.50
2018-07-08T06:24:17.781Z,22.50
2018-07-08T06:25:17.806Z,22.50
2018-07-08T06:26:17.828Z,16.88
2018-07-08T06:27:17.821Z,16.88
2018-07-08T06:28:17.837Z,16.88
2018-07-08T06:29:17.852Z,16.88
2018-07-08T06:30:17.868Z,16.88
2018-07-08T06:31:17.881Z,16.88
2018-07-08T06:32:17.888Z,16.88
2018-07-08T06:33:17.906Z,16.88
2018-07-08T06:34:17.917Z,16.88
2018-07-08T06:35:17.926Z,16.88
2018-07-08T06:36:17.955Z,16.88
2018-07-08T06:37:17.948Z,16.88
2018-07-08T06:38:17.964Z,16.88
2018-07-08T06:39:17.991Z,16.88
2018-07-08T06:40:17.991Z,16.88
2018-07-08T06:41:17.997Z,16.88
2018-07-08T06:42:18.009Z,16.88
2018-07-08T06:43:18.018Z,16.88
2018-07-08T06:44:18.038Z,16.88
2018-07-08T06:45:18.039Z,16.88
2018-07-08T06:46:18.051Z,16.88
2018-07-08T06:47:18.057Z,16.88
2018-07-08T06:48:18.082Z,16.88
2018-07-08T06:49:18.085Z,16.88
2018-07-08T06:50:18.091Z,16.88
2018-07-08T06:51:18.140Z,16.88
2018-07-08T06:52:18.110Z,16.88
2018-07-08T06:53:18.114Z,16.88
2018-07-08T06:54:18.133Z,11.25
2018-07-08T06:55:18.142Z,16.88
2018-07-08T06:56:18.146Z,11.25
2018-07-08T06:57:18.147Z,16.88
2018-07-08T06:58:18.197Z,16.88
2018-07-08T06:59:18.170Z,16.88
2018-07-08T07:00:18.180Z,16.88
2018-07-08T07:01:18.191Z,11.25
2018-07-08T07:02:18.198Z,11.25
2018-07-08T07:03:18.213Z,11.25
2018-07-08T07:04:18.209Z,11.25
2018-07-08T07:05:18.218Z,11.25
2018-07-08T07:06:18.224Z,11.25
2018-07-08T07:07:18.235Z,11.25
2018-07-08T07:08:18.251Z,11.25
2018-07-08T07:09:18.252Z,11.25
2018-07-08T07:10:18.255Z,11.25
2018-07-08T07:11:18.274Z,11.25
2018-07-08T07:12:18.277Z,11.25
2018-07-08T07:13:18.280Z,11.25
2018-07-08T07:14:18.294Z,11.25
2018-07-08T07:15:18.299Z,11.25
2018-07-08T07:16:18.304Z,11.25
2018-07-08T07:17:18.369Z,11.25
2018-07-08T07:18:18.316Z,11.25
2018-07-08T07:19:18.336Z,11.25
2018-07-08T07:20:18.336Z,11.25
2018-07-08T07:21:18.344Z,11.25
2018-07-08T07:22:18.355Z,11.25
2018-07-08T07:23:18.364Z,11.25
2018-07-08T07:24:18.364Z,11.25
2018-07-08T07:25:18.376Z,11.25
2018-07-08T07:26:18.381Z,11.25
2018-07-08T07:27:18.386Z,11.25
2018-07-08T07:28:18.394Z,11.25
2018-07-08T07:29:18.548Z,11.25
2018-07-08T07:30:18.425Z,11.25
2018-07-08T07:31:18.433Z,11.25
2018-07-08T07:32:18.422Z,11.25
2018-07-08T07:33:18.441Z,11.25
2018-07-08T07:34:18.452Z,11.25
2018-07-08T07:35:18.451Z,11.25
2018-07-08T07:36:18.458Z,11.25
2018-07-08T07:37:18.499Z,11.25
2018-07-08T07:38:18.471Z,11.25
2018-07-08T07:39:18.475Z,11.25
2018-07-08T07:40:18.486Z,11.25
2018-07-08T07:41:18.499Z,11.25
2018-07-08T07:42:18.500Z,11.25
2018-07-08T07:43:18.515Z,11.25
2018-07-08T07:44:18.513Z,11.25
2018-07-08T07:45:18.521Z,11.25
2018-07-08T07:46:18.525Z,11.25
2018-07-08T07:47:18.537Z,11.25
2018-07-08T07:48:18.542Z,11.25
2018-07-08T07:49:18.544Z,11.25
2018-07-08T07:50:18.554Z,11.25
2018-07-08T07:51:18.648Z,11.25
2018-07-08T07:52:18.570Z,11.25
2018-07-08T07:53:18.578Z,11.25
2018-07-08T07:54:18.590Z,11.25
2018-07-08T07:55:18.591Z,11.25
2018-07-08T07:56:18.598Z,11.25
2018-07-08T07:57:18.604Z,11.25
2018-07-08T07:58:18.616Z,11.25
2018-07-08T07:59:18.616Z,11.25
2018-07-08T08:00:18.623Z,11.25
2018-07-08T08:01:18.630Z,11.25
2018-07-08T08:02:18.647Z,11.25
2018-07-08T08:03:18.651Z,11.25
2018-07-08T08:04:18.653Z,11.25
2018-07-08T08:05:18.666Z,11.25
2018-07-08T08:06:18.673Z,11.25
2018-07-08T08:07:18.680Z,11.25
2018-07-08T08:08:18.822Z,11.25
2018-07-08T08:09:18.689Z,11.25
2018-07-08T08:10:18.732Z,11.25
2018-07-08T08:11:18.701Z,11.25
2018-07-08T08:12:18.709Z,11.25
2018-07-08T08:13:18.717Z,11.25
2018-07-08T08:14:18.734Z,11.25
2018-07-08T08:15:18.731Z,11.25
2018-07-08T08:16:18.740Z,11.25
2018-07-08T08:17:18.742Z,11.25
2018-07-08T08:18:18.750Z,11.25
2018-07-08T08:19:18.763Z,11.25
2018-07-08T08:20:18.763Z,11.25
2018-07-08T08:21:18.785Z,11.25
2018-07-08T08:22:18.833Z,11.25
2018-07-08T08:23:18.790Z,11.25
2018-07-08T08:24:18.816Z,11.25
2018-07-08T08:25:18.796Z,11.25
2018-07-08T08:26:18.861Z,5.63
2018-07-08T08:27:18.809Z,11.25
2018-07-08T08:28:18.842Z,11.25
2018-07-08T08:29:18.832Z,11.25
2018-07-08T08:30:18.838Z,11.25
2018-07-08T08:31:18.847Z,11.25
2018-07-08T08:32:18.848Z,11.25
2018-07-08T08:33:18.855Z,11.25
2018-07-08T08:34:18.877Z,11.25
2018-07-08T08:35:18.903Z,11.25
2018-07-08T08:36:18.891Z,11.25
2018-07-08T08:38:39.990Z,11.25
2018-07-08T08:39:39.975Z,11.25
2018-07-08T08:40:39.980Z,11.25
2018-07-08T08:41:39.994Z,11.25
2018-07-08T08:42:40.008Z,11.25
2018-07-08T08:43:40.003Z,11.25
2018-07-08T08:44:40.003Z,11.25
2018-07-08T08:45:40.009Z,5.63
2018-07-08T08:46:40.020Z,11.25
2018-07-08T08:47:40.026Z,5.63
2018-07-08T08:48:40.055Z,11.25
2018-07-08T08:49:40.036Z,11.25
2018-07-08T08:50:40.043Z,5.63
2018-07-08T08:51:40.061Z,5.63
2018-07-08T08:52:40.061Z,5.63
2018-07-08T08:53:40.100Z,11.25
2018-07-08T08:54:40.076Z,11.25
2018-07-08T08:55:40.078Z,5.63
2018-07-08T08:56:40.102Z,5.63
2018-07-08T08:57:40.106Z,5.63
2018-07-08T08:58:40.105Z,5.63
2018-07-08T08:59:40.103Z,5.63
2018-07-08T09:00:40.114Z,5.63
2018-07-08T09:01:40.117Z,5.63
2018-07-08T09:02:40.127Z,5.63
2018-07-08T09:03:40.169Z,5.63
2018-07-08T09:04:40.135Z,11.25
2018-07-08T09:05:40.240Z,5.63
2018-07-08T09:06:40.187Z,5.63
2018-07-08T09:07:40.175Z,5.63
2018-07-08T09:08:40.177Z,5.63
2018-07-08T09:09:40.187Z,5.63
2018-07-08T09:10:40.221Z,5.63
2018-07-08T09:11:40.209Z,5.63
2018-07-08T09:12:40.196Z,11.25
2018-07-08T09:13:40.196Z,5.63
2018-07-08T09:14:40.207Z,5.63
2018-07-08T09:15:40.214Z,5.63
2018-07-08T09:16:40.215Z,5.63
2018-07-08T09:17:40.224Z,5.63
2018-07-08T09:18:40.230Z,5.63
2018-07-08T09:19:40.234Z,5.63
2018-07-08T09:20:40.244Z,5.63
2018-07-08T09:21:40.273Z,5.63
2018-07-08T09:22:40.273Z,5.63
2018-07-08T09:23:40.342Z,5.63
2018-07-08T09:24:40.269Z,5.63
2018-07-08T09:25:40.285Z,5.63
2018-07-08T09:26:40.280Z,5.63
2018-07-08T09:27:40.291Z,11.25
2018-07-08T09:28:40.292Z,5.63
2018-07-08T09:29:40.428Z,5.63
2018-07-08T09:30:40.304Z,5.63
2018-07-08T09:31:40.310Z,5.63
2018-07-08T09:32:40.319Z,5.63
2018-07-08T09:33:40.339Z,5.63
2018-07-08T09:34:40.387Z,5.63
2018-07-08T09:35:40.424Z,5.63
2018-07-08T09:36:40.346Z,5.63
2018-07-08T09:37:40.364Z,5.63
2018-07-08T09:38:40.434Z,5.63
2018-07-08T09:39:40.362Z,5.63
2018-07-08T09:40:40.375Z,5.63
2018-07-08T09:41:40.727Z,5.63
2018-07-08T09:42:40.395Z,5.63
2018-07-08T09:43:40.389Z,5.63
2018-07-08T09:44:40.468Z,5.63
2018-07-08T09:45:40.413Z,5.63
2018-07-08T09:46:40.414Z,5.63
2018-07-08T09:47:40.418Z,5.63
2018-07-08T09:48:40.425Z,5.63
2018-07-08T09:49:40.428Z,5.63
2018-07-08T09:50:40.435Z,5.63
2018-07-08T09:51:40.447Z,5.63
2018-07-08T09:52:40.599Z,5.63
2018-07-08T09:53:40.455Z,5.63
2018-07-08T09:54:40.462Z,5.63
2018-07-08T09:55:40.463Z,5.63
2018-07-08T09:56:40.470Z,5.63
2018-07-08T09:57:40.484Z,5.63
2018-07-08T09:58:40.490Z,5.63
2018-07-08T09:59:40.493Z,5.63
2018-07-08T10:00:40.506Z,5.63
2018-07-08T10:01:40.524Z,5.63
2018-07-08T10:02:40.512Z,5.63
2018-07-08T10:03:40.522Z,5.63
2018-07-08T10:04:40.627Z,5.63
2018-07-08T10:05:40.537Z,5.63
2018-07-08T10:06:40.556Z,5.63
2018-07-08T10:07:40.554Z,5.63
2018-07-08T10:08:40.576Z,11.25
2018-07-08T10:09:40.564Z,5.63
2018-07-08T10:10:40.566Z,5.63
2018-07-08T10:11:40.575Z,5.63
2018-07-08T10:12:40.620Z,5.63
2018-07-08T10:13:40.599Z,5.63
2018-07-08T10:14:40.593Z,5.63
2018-07-08T10:15:40.602Z,5.63
2018-07-08T10:16:40.635Z,5.63
2018-07-08T10:17:40.623Z,5.63
2018-07-08T10:18:40.628Z,5.63
2018-07-08T10:19:40.712Z,5.63
2018-07-08T10:20:40.639Z,5.63
2018-07-08T10:21:40.640Z,5.63
2018-07-08T10:22:40.648Z,5.63
2018-07-08T10:23:40.656Z,5.63
2018-07-08T10:24:40.660Z,5.63
2018-07-08T10:25:40.664Z,5.63
2018-07-08T10:26:40.670Z,5.63
2018-07-08T10:27:40.684Z,5.63
2018-07-08T10:28:40.695Z,5.63
2018-07-08T10:29:40.691Z,5.63
2018-07-08T10:30:40.702Z,5.63
2018-07-08T10:31:40.712Z,5.63
2018-07-08T10:32:40.710Z,5.63
2018-07-08T10:33:40.742Z,5.63
2018-07-08T10:34:40.729Z,5.63
2018-07-08T10:35:40.730Z,5.63
2018-07-08T10:36:40.814Z,5.63
2018-07-08T10:37:40.745Z,5.63
2018-07-08T10:38:40.750Z,5.63
2018-07-08T10:39:40.774Z,5.63
2018-07-08T10:40:40.771Z,5.63
2018-07-08T10:41:40.781Z,5.63
2018-07-08T10:42:40.808Z,5.63
2018-07-08T10:43:40.870Z,5.63
2018-07-08T10:44:40.800Z,5.63
2018-07-08T10:45:40.834Z,5.63
2018-07-08T10:46:40.806Z,5.63
2018-07-08T10:47:40.851Z,5.63
2018-07-08T10:48:40.853Z,5.63
2018-07-08T10:49:40.836Z,5.63
2018-07-08T10:50:40.831Z,5.63
2018-07-08T10:51:40.854Z,5.63
2018-07-08T10:52:40.853Z,5.63
2018-07-08T10:53:40.888Z,5.63
2018-07-08T10:54:40.860Z,5.63
2018-07-08T10:55:40.901Z,5.63
2018-07-08T10:56:40.883Z,5.63
2018-07-08T10:57:40.881Z,5.63
2018-07-08T10:58:40.884Z,5.63
2018-07-08T10:59:40.905Z,5.63
2018-07-08T11:00:40.905Z,5.63
2018-07-08T11:01:40.919Z,5.63
2018-07-08T11:02:40.920Z,5.63
2018-07-08T11:03:40.928Z,5.63
2018-07-08T11:04:40.936Z,5.63
2018-07-08T11:05:40.934Z,5.63
2018-07-08T11:06:40.946Z,5.63
2018-07-08T11:07:40.952Z,5.63
2018-07-08T11:08:40.952Z,5.63
2018-07-08T11:09:40.961Z,5.63
2018-07-08T11:10:41.020Z,5.63
2018-07-08T11:11:40.997Z,5.63
2018-07-08T11:12:40.982Z,5.63
2018-07-08T11:13:41.016Z,5.63
2018-07-08T11:14:40.995Z,5.63
2018-07-08T11:15:41.004Z,5.63
2018-07-08T11:16:41.008Z,5.63
2018-07-08T11:17:41.020Z,5.63
2018-07-08T11:18:41.030Z,5.63
2018-07-08T11:19:41.031Z,5.63
2018-07-08T11:20:41.121Z,5.63
2018-07-08T11:21:41.047Z,5.63
2018-07-08T11:22:41.053Z,5.63
2018-07-08T11:23:41.057Z,5.63
2018-07-08T11:24:41.068Z,5.63
2018-07-08T11:25:41.074Z,5.63
2018-07-08T11:26:41.080Z,5.63
2018-07-08T11:27:41.085Z,5.63
2018-07-08T11:28:41.128Z,5.63
2018-07-08T11:29:41.098Z,5.63
2018-07-08T11:30:41.110Z,5.63
2018-07-08T11:31:41.111Z,5.63
2018-07-08T11:32:41.121Z,5.63
2018-07-08T11:33:41.126Z,5.63
2018-07-08T11:34:41.140Z,5.63
2018-07-08T11:35:41.137Z,5.63
2018-07-08T11:36:41.188Z,5.63
2018-07-08T11:37:41.156Z,5.63
2018-07-08T11:38:41.161Z,5.63
2018-07-08T11:39:41.169Z,5.63
2018-07-08T11:40:41.176Z,5.63
2018-07-08T11:41:41.180Z,5.63
2018-07-08T11:42:41.190Z,5.63
2018-07-08T11:43:41.192Z,5.63
2018-07-08T11:44:41.203Z,5.63
2018-07-08T11:45:41.216Z,5.63
2018-07-08T11:46:41.218Z,5.63
2018-07-08T11:47:41.221Z,5.63
2018-07-08T11:48:41.227Z,5.63
2018-07-08T11:49:41.245Z,5.63
2018-07-08T11:50:41.243Z,5.63
2018-07-08T11:51:41.250Z,5.63
2018-07-08T11:52:41.260Z,5.63
2018-07-08T11:53:41.267Z,5.63
2018-07-08T11:54:41.270Z,5.63
2018-07-08T11:55:41.291Z,5.63
2018-07-08T11:56:41.287Z,5.63
2018-07-08T11:57:41.295Z,5.63
2018-07-08T11:58:41.315Z,5.63
2018-07-08T11:59:41.305Z,5.63
2018-07-08T12:00:41.320Z,5.63
2018-07-08T12:01:41.326Z,5.63
2018-07-08T12:02:41.327Z,5.63
2018-07-08T12:03:41.333Z,5.63
2018-07-08T12:04:41.343Z,5.63
2018-07-08T12:05:41.348Z,5.63
2018-07-08T12:06:41.355Z,5.63
2018-07-08T12:07:41.364Z,5.63
2018-07-08T12:08:41.370Z,5.63
2018-07-08T12:09:41.379Z,5.63
2018-07-08T12:10:41.381Z,5.63
2018-07-08T12:11:41.388Z,5.63
2018-07-08T12:12:41.394Z,5.63
2018-07-08T12:13:41.404Z,5.63
2018-07-08T12:14:41.408Z,5.63
2018-07-08T12:15:41.417Z,5.63
2018-07-08T12:16:41.424Z,5.63
2018-07-08T12:17:41.428Z,5.63
2018-07-08T12:18:41.439Z,5.63
2018-07-08T12:19:41.446Z,5.63
2018-07-08T12:20:41.454Z,5.63
2018-07-08T12:21:41.456Z,5.63
2018-07-08T12:22:41.463Z,5.63
2018-07-08T12:23:41.468Z,5.63
2018-07-08T12:24:41.475Z,5.63
2018-07-08T12:25:41.486Z,5.63
2018-07-08T12:26:41.490Z,5.63
2018-07-08T12:27:41.514Z,5.63
2018-07-08T12:28:41.518Z,5.63
2018-07-08T12:29:41.518Z,5.63
2018-07-08T12:30:41.532Z,5.63
2018-07-08T12:31:41.527Z,5.63
2018-07-08T12:32:41.535Z,5.63
2018-07-08T12:33:41.543Z,5.63
2018-07-08T12:34:41.552Z,5.63
2018-07-08T12:35:41.555Z,5.63
2018-07-08T12:36:41.604Z,5.63
2018-07-08T12:37:41.570Z,5.63
2018-07-08T12:38:41.574Z,5.63
2018-07-08T12:39:41.584Z,5.63
2018-07-08T12:40:41.592Z,5.63
2018-07-08T12:41:41.600Z,5.63
2018-07-08T12:42:41.614Z,5.63
2018-07-08T12:43:41.615Z,5.63
2018-07-08T12:44:41.786Z,5.63
2018-07-08T12:45:41.630Z,5.63
2018-07-08T12:46:41.644Z,5.63
2018-07-08T12:47:41.644Z,5.63
2018-07-08T12:48:41.649Z,5.63
2018-07-08T12:49:41.661Z,5.63
2018-07-08T12:50:41.664Z,5.63
2018-07-08T12:51:41.671Z,5.63
2018-07-08T12:52:41.676Z,5.63
2018-07-08T12:53:41.684Z,5.63
2018-07-08T12:54:41.697Z,5.63
2018-07-08T12:55:41.704Z,5.63
2018-07-08T12:56:41.711Z,5.63
2018-07-08T12:57:41.719Z,5.63
2018-07-08T12:58:41.750Z,5.63
2018-07-08T12:59:41.728Z,5.63
2018-07-08T13:00:41.730Z,5.63
2018-07-08T13:01:41.741Z,5.63
2018-07-08T13:02:41.744Z,5.63
2018-07-08T13:03:41.766Z,5.63
2018-07-08T13:04:41.764Z,5.63
2018-07-08T13:05:41.768Z,5.63
2018-07-08T13:06:41.834Z,5.63
2018-07-08T13:07:41.788Z,5.63
2018-07-08T13:08:41.795Z,5.63
2018-07-08T13:09:41.800Z,5.63
2018-07-08T13:10:41.804Z,5.63
2018-07-08T13:11:41.838Z,5.63
2018-07-08T13:12:41.823Z,5.63
2018-07-08T13:13:41.837Z,5.63
2018-07-08T13:14:41.835Z,5.63
2018-07-08T13:15:41.846Z,5.63
2018-07-08T13:16:41.846Z,5.63
2018-07-08T13:17:41.857Z,5.63
2018-07-08T13:18:41.868Z,5.63
2018-07-08T13:19:41.874Z,5.63
2018-07-08T13:20:41.879Z,5.63
2018-07-08T13:21:41.886Z,5.63
2018-07-08T13:22:41.898Z,5.63
2018-07-08T13:23:41.901Z,5.63
2018-07-08T13:24:41.910Z,5.63
2018-07-08T13:25:41.916Z,5.63
2018-07-08T13:26:41.923Z,5.63
2018-07-08T13:27:41.931Z,5.63
2018-07-08T13:28:41.941Z,5.63
2018-07-08T13:29:41.943Z,5.63
2018-07-08T13:30:41.956Z,5.63
2018-07-08T13:31:41.957Z,5.63